createdAt,value
2023-03-01T00:02:18.008Z,101266.75
2023-03-01T00:04:46.104Z,101259.19
2023-03-01T00:07:14.448Z,101262.28
2023-03-01T00:09:43.146Z,101268.41
2023-03-01T00:12:13.248Z,101263.81
2023-03-01T00:14:41.629Z,101262.78
2023-03-01T00:17:09.643Z,101275.63
2023-03-01T00:19:38.050Z,101265.25
2023-03-01T00:22:06.363Z,101259.78
2023-03-01T00:24:34.606Z,101255.06
2023-03-01T00:27:05.855Z,101249.66
2023-03-01T00:29:34.379Z,101247.03
2023-03-01T00:32:02.897Z,101249.50
2023-03-01T00:34:31.232Z,101250.91
2023-03-01T00:37:06.175Z,101239.31
2023-03-01T00:39:41.917Z,101245.06
2023-03-01T00:42:10.104Z,101240.84
2023-03-01T00:44:38.109Z,101229.47
2023-03-01T00:47:06.326Z,101238.63
2023-03-01T00:49:38.512Z,101220.50
2023-03-01T00:52:06.653Z,101230.13
2023-03-01T00:54:37.242Z,101222.59
2023-03-01T00:57:05.800Z,101230.13
2023-03-01T00:59:34.183Z,101230.22
2023-03-01T01:02:02.556Z,101223.06
2023-03-01T01:04:30.807Z,101222.03
2023-03-01T01:07:03.059Z,101211.72
2023-03-01T01:09:31.138Z,101226.81
2023-03-01T01:11:59.135Z,101205.25
2023-03-01T01:14:27.518Z,101197.22
2023-03-01T01:17:03.760Z,101187.59
2023-03-01T01:19:32.359Z,101194.66
2023-03-01T01:22:01.177Z,101177.97
2023-03-01T01:24:29.399Z,101175.88
2023-03-01T01:27:00.886Z,101175.59
2023-03-01T01:29:29.544Z,101175.56
2023-03-01T01:31:57.700Z,101166.47
2023-03-01T01:34:28.731Z,101174.72
2023-03-01T01:37:03.958Z,101153.03
2023-03-01T01:39:32.444Z,101156.69
2023-03-01T01:42:02.149Z,101144.13
2023-03-01T01:44:31.543Z,101140.91
2023-03-01T01:47:20.071Z,101137.59
2023-03-01T01:49:55.925Z,101145.94
2023-03-01T01:52:27.033Z,101146.78
2023-03-01T01:55:04.306Z,101143.25
2023-03-01T01:57:40.297Z,101141.03
2023-03-01T02:00:31.206Z,101124.13
2023-03-01T02:03:15.808Z,101123.22
2023-03-01T02:05:55.599Z,101122.63
2023-03-01T02:08:29.748Z,101123.44
2023-03-01T02:11:01.037Z,101125.22
2023-03-01T02:13:31.522Z,101110.50
2023-03-01T02:16:09.835Z,101112.09
2023-03-01T02:18:39.702Z,101114.41
2023-03-01T02:21:26.182Z,101104.91
2023-03-01T02:24:07.648Z,101094.97
2023-03-01T02:26:49.620Z,101089.47
2023-03-01T02:29:25.339Z,101099.16
2023-03-01T02:32:03.502Z,101084.63
2023-03-01T02:34:33.818Z,101079.91
2023-03-01T02:37:13.890Z,101084.50
2023-03-01T02:39:49.958Z,101078.31
2023-03-01T02:42:27.196Z,101079.56
2023-03-01T02:44:56.010Z,101075.41
2023-03-01T02:47:24.525Z,101070.50
2023-03-01T02:49:52.883Z,101072.56
2023-03-01T02:52:41.073Z,101057.72
2023-03-01T02:55:15.853Z,101067.72
2023-03-01T02:57:51.977Z,101053.69
2023-03-01T03:00:30.032Z,101051.38
2023-03-01T03:02:59.244Z,101050.63
2023-03-01T03:05:31.215Z,101042.63
2023-03-01T03:08:02.355Z,101048.19
2023-03-01T03:10:38.868Z,101039.66
2023-03-01T03:13:12.332Z,101039.50
2023-03-01T03:15:50.381Z,101036.97
2023-03-01T03:18:29.450Z,101036.97
2023-03-01T03:20:57.834Z,101053.97
2023-03-01T03:23:29.855Z,101037.69
2023-03-01T03:25:58.604Z,101045.06
2023-03-01T03:28:41.168Z,101037.31
2023-03-01T03:31:09.778Z,101031.28
2023-03-01T03:33:38.218Z,101031.09
2023-03-01T03:36:06.893Z,101029.56
2023-03-01T03:38:35.337Z,101038.38
2023-03-01T03:41:32.471Z,101040.25
2023-03-01T03:44:01.577Z,101043.38
2023-03-01T03:46:44.339Z,101039.72
2023-03-01T03:49:12.597Z,101040.81
2023-03-01T03:51:43.413Z,101035.50
2023-03-01T03:54:13.243Z,101033.50
2023-03-01T03:56:44.168Z,101042.31
2023-03-01T03:59:12.674Z,101035.44
2023-03-01T04:02:31.923Z,101040.66
2023-03-01T04:05:00.382Z,101030.06
2023-03-01T04:07:29.124Z,101036.22
2023-03-01T04:09:57.631Z,101031.16
2023-03-01T04:12:26.076Z,101032.69
2023-03-01T04:14:54.628Z,101017.94
2023-03-01T04:17:22.844Z,101011.63
2023-03-01T04:19:54.358Z,101024.81
2023-03-01T04:22:22.752Z,101027.34
2023-03-01T04:24:52.487Z,101017.66
2023-03-01T04:27:23.593Z,101018.66
2023-03-01T04:29:53.227Z,101019.47
2023-03-01T04:32:25.249Z,101006.31
2023-03-01T04:34:59.046Z,101012.00
2023-03-01T04:37:27.271Z,101013.84
2023-03-01T04:39:54.813Z,101012.72
2023-03-01T04:42:22.306Z,101007.50
2023-03-01T04:44:52.290Z,101001.16
2023-03-01T04:47:19.801Z,101022.06
2023-03-01T04:49:47.240Z,101012.78
2023-03-01T04:52:14.645Z,101008.56
2023-03-01T04:54:42.165Z,101014.06
2023-03-01T04:57:09.767Z,101012.38
2023-03-01T04:59:37.270Z,101017.53
2023-03-01T05:02:04.787Z,101019.13
2023-03-01T05:04:32.342Z,101013.53
2023-03-01T05:06:59.961Z,101013.50
2023-03-01T05:09:27.507Z,101021.13
2023-03-01T05:11:54.975Z,101013.34
2023-03-01T05:14:22.915Z,101008.19
2023-03-01T05:16:50.417Z,101003.28
2023-03-01T05:19:23.685Z,100995.75
2023-03-01T05:22:03.049Z,101008.97
2023-03-01T05:24:35.392Z,101006.06
2023-03-01T05:27:03.928Z,101008.31
2023-03-01T05:29:36.071Z,101010.03
2023-03-01T05:32:03.959Z,100990.47
2023-03-01T05:34:34.571Z,101003.69
2023-03-01T05:37:03.264Z,101001.91
2023-03-01T05:39:31.377Z,100999.63
2023-03-01T05:42:00.887Z,101005.50
2023-03-01T05:44:29.643Z,100998.88
2023-03-01T05:46:57.518Z,101002.72
2023-03-01T05:49:25.141Z,100998.31
2023-03-01T05:51:53.994Z,100999.94
2023-03-01T05:54:22.852Z,101002.09
2023-03-01T05:56:50.335Z,101004.78
2023-03-01T05:59:17.809Z,100998.75
2023-03-01T06:01:45.350Z,100999.50
2023-03-01T06:04:12.759Z,101007.53
2023-03-01T06:06:40.587Z,100998.81
2023-03-01T06:09:10.352Z,101013.59
2023-03-01T06:11:38.168Z,101002.00
2023-03-01T06:14:07.565Z,101005.84
2023-03-01T06:16:37.526Z,101014.22
2023-03-01T06:19:05.089Z,101010.56
2023-03-01T06:21:32.804Z,101007.44
2023-03-01T06:24:00.328Z,101006.09
2023-03-01T06:26:27.938Z,101000.19
2023-03-01T06:28:55.381Z,100995.91
2023-03-01T06:31:22.780Z,101008.63
2023-03-01T06:33:50.747Z,101013.78
2023-03-01T06:36:19.821Z,101002.81
2023-03-01T06:38:47.295Z,101000.56
2023-03-01T06:41:15.072Z,100995.06
2023-03-01T06:43:42.527Z,100998.25
2023-03-01T06:46:10.203Z,100987.47
2023-03-01T06:48:37.725Z,100989.44
2023-03-01T06:51:05.517Z,100993.28
2023-03-01T06:53:37.363Z,100987.75
2023-03-01T06:56:05.208Z,101000.47
2023-03-01T06:58:35.170Z,100997.75
2023-03-01T07:01:08.769Z,101000.31
2023-03-01T07:04:14.421Z,101010.28
2023-03-01T07:06:57.287Z,100996.03
2023-03-01T07:09:25.244Z,101004.34
2023-03-01T07:11:52.809Z,101006.13
2023-03-01T07:14:20.838Z,100995.19
2023-03-01T07:16:48.367Z,100998.78
2023-03-01T07:19:15.837Z,100991.22
2023-03-01T07:21:43.526Z,100994.63
2023-03-01T07:24:11.747Z,100995.44
2023-03-01T07:26:57.535Z,100997.69
2023-03-01T07:29:24.973Z,100987.69
2023-03-01T07:31:53.632Z,100997.59
2023-03-01T07:34:21.057Z,100997.78
2023-03-01T07:36:48.548Z,100996.22
2023-03-01T07:39:17.516Z,100988.66
2023-03-01T07:41:45.966Z,100998.56
2023-03-01T07:44:13.441Z,100985.41
2023-03-01T07:46:40.943Z,100976.78
2023-03-01T07:49:08.494Z,100965.75
2023-03-01T07:51:35.947Z,100961.25
2023-03-01T07:54:03.567Z,100959.28
2023-03-01T07:56:31.455Z,100956.41
2023-03-01T07:59:00.287Z,100961.22
2023-03-01T08:01:27.739Z,100953.06
2023-03-01T08:03:55.163Z,100961.94
2023-03-01T08:06:22.730Z,100951.09
2023-03-01T08:08:50.254Z,100932.31
2023-03-01T08:11:17.753Z,100941.19
2023-03-01T08:13:51.019Z,100934.25
2023-03-01T08:16:18.929Z,100928.13
2023-03-01T08:18:47.611Z,100937.91
2023-03-01T08:21:17.914Z,100918.59
2023-03-01T08:23:45.759Z,100940.16
2023-03-01T08:26:15.271Z,100928.94
2023-03-01T08:28:43.661Z,100912.03
2023-03-01T08:31:38.557Z,100921.63
2023-03-01T08:34:12.601Z,100920.88
2023-03-01T08:36:42.630Z,100925.41
2023-03-01T08:39:12.699Z,100921.00
2023-03-01T08:41:40.862Z,100918.53
2023-03-01T08:44:09.871Z,100932.44
2023-03-01T08:46:42.032Z,100929.81
2023-03-01T08:49:14.169Z,100920.19
2023-03-01T08:51:42.121Z,100911.28
2023-03-01T08:54:15.886Z,100908.28
2023-03-01T08:56:43.534Z,100896.22
2023-03-01T08:59:15.899Z,100900.75
2023-03-01T09:01:46.321Z,100885.09
2023-03-01T09:04:15.450Z,100892.19
2023-03-01T09:06:43.166Z,100887.88
2023-03-01T09:09:17.072Z,100898.44
2023-03-01T09:11:47.408Z,100880.06
2023-03-01T09:14:15.333Z,100879.16
2023-03-01T09:16:43.439Z,100883.50
2023-03-01T09:19:12.137Z,100881.72
2023-03-01T09:21:41.234Z,100876.56
2023-03-01T09:24:15.807Z,100881.75
2023-03-01T09:26:44.060Z,100896.69
2023-03-01T09:29:11.534Z,100876.59
2023-03-01T09:31:39.350Z,100880.88
2023-03-01T09:34:07.418Z,100876.63
2023-03-01T09:36:35.202Z,100874.06
2023-03-01T09:39:03.928Z,100876.59
2023-03-01T09:41:47.099Z,100871.34
2023-03-01T09:44:26.492Z,100875.78
2023-03-01T09:46:54.272Z,100869.59
2023-03-01T09:49:35.008Z,100851.28
2023-03-01T09:52:16.188Z,100842.53
2023-03-01T09:54:43.665Z,100832.00
2023-03-01T09:57:27.591Z,100832.84
2023-03-01T10:00:15.616Z,100832.00
2023-03-01T10:02:48.462Z,100835.53
2023-03-01T10:05:42.507Z,100845.16
2023-03-01T10:08:58.216Z,100849.53
2023-03-01T10:11:39.345Z,100836.41
2023-03-01T10:14:30.561Z,100846.06
2023-03-01T10:17:05.781Z,100839.91
2023-03-01T10:19:43.288Z,100839.03
2023-03-01T10:22:22.416Z,100839.88
2023-03-01T10:24:52.990Z,100829.34
2023-03-01T10:27:49.295Z,100825.00
2023-03-01T10:30:40.467Z,100828.53
2023-03-01T10:33:32.075Z,100821.47
2023-03-01T10:35:59.730Z,100827.66
2023-03-01T10:38:31.089Z,100825.88
2023-03-01T10:41:06.546Z,100805.66
2023-03-01T10:43:52.795Z,100805.72
2023-03-01T10:46:24.705Z,100811.81
2023-03-01T10:49:21.213Z,100818.75
2023-03-01T10:51:51.455Z,100809.22
2023-03-01T10:54:29.882Z,100812.56
2023-03-01T10:57:00.210Z,100807.31
2023-03-01T10:59:36.119Z,100815.00
2023-03-01T11:02:24.968Z,100815.78
2023-03-01T11:05:14.579Z,100806.97
2023-03-01T11:07:57.597Z,100806.59
2023-03-01T11:10:30.808Z,100810.88
2023-03-01T11:13:19.443Z,100819.53
2023-03-01T11:16:07.918Z,100810.78
2023-03-01T11:18:47.153Z,100810.94
2023-03-01T11:21:17.285Z,100811.59
2023-03-01T11:23:47.957Z,100816.06
2023-03-01T11:26:17.837Z,100832.59
2023-03-01T11:28:51.308Z,100836.13
2023-03-01T11:31:20.725Z,100835.28
2023-03-01T11:34:03.870Z,100824.69
2023-03-01T11:36:39.063Z,100833.63
2023-03-01T11:39:24.384Z,100833.63
2023-03-01T11:42:18.551Z,100841.56
2023-03-01T11:44:50.797Z,100844.25
2023-03-01T11:47:34.121Z,100850.41
2023-03-01T11:50:01.671Z,100848.66
2023-03-01T11:52:33.769Z,100851.28
2023-03-01T11:55:18.480Z,100847.78
2023-03-01T11:58:07.064Z,100853.03
2023-03-01T12:00:53.029Z,100843.31
2023-03-01T12:03:26.364Z,100846.81
2023-03-01T12:06:15.733Z,100829.38
2023-03-01T12:08:52.796Z,100822.25
2023-03-01T12:11:32.734Z,100823.91
2023-03-01T12:14:25.446Z,100830.97
2023-03-01T12:17:27.075Z,100833.59
2023-03-01T12:20:21.335Z,100839.78
2023-03-01T12:23:19.569Z,100838.03
2023-03-01T12:26:25.966Z,100826.59
2023-03-01T12:29:18.077Z,100824.97
2023-03-01T12:32:01.110Z,100832.84
2023-03-01T12:35:18.001Z,100835.53
2023-03-01T12:38:30.221Z,100844.22
2023-03-01T12:41:18.638Z,100837.22
2023-03-01T12:44:11.041Z,100829.34
2023-03-01T12:47:09.893Z,100827.56
2023-03-01T12:49:46.044Z,100826.72
2023-03-01T12:52:19.966Z,100824.09
2023-03-01T12:54:49.013Z,100809.16
2023-03-01T12:57:30.287Z,100802.19
2023-03-01T13:00:28.320Z,100801.31
2023-03-01T13:03:19.169Z,100790.84
2023-03-01T13:05:57.610Z,100769.81
2023-03-01T13:08:37.726Z,100792.63
2023-03-01T13:11:13.077Z,100777.69
2023-03-01T13:13:40.515Z,100785.56
2023-03-01T13:16:43.956Z,100796.91
2023-03-01T13:19:25.263Z,100790.75
2023-03-01T13:21:57.915Z,100793.44
2023-03-01T13:24:27.947Z,100794.31
2023-03-01T13:27:07.111Z,100792.53
2023-03-01T13:29:47.880Z,100782.94
2023-03-01T13:32:43.123Z,100791.66
2023-03-01T13:35:34.356Z,100798.66
2023-03-01T13:38:38.301Z,100785.50
2023-03-01T13:41:06.374Z,100773.25
2023-03-01T13:43:36.632Z,100772.44
2023-03-01T13:46:30.791Z,100771.53
2023-03-01T13:48:58.499Z,100780.28
2023-03-01T13:51:29.400Z,100772.44
2023-03-01T13:53:58.768Z,100762.81
2023-03-01T13:56:29.303Z,100761.94
2023-03-01T13:59:05.450Z,100765.44
2023-03-01T14:01:36.248Z,100770.72
2023-03-01T14:04:19.215Z,100781.19
2023-03-01T14:06:47.607Z,100784.69
2023-03-01T14:09:22.585Z,100769.75
2023-03-01T14:12:28.460Z,100788.09
2023-03-01T14:15:21.301Z,100795.91
2023-03-01T14:18:03.465Z,100791.56
2023-03-01T14:20:36.436Z,100787.91
2023-03-01T14:23:12.720Z,100791.44
2023-03-01T14:25:49.923Z,100785.41
2023-03-01T14:28:24.161Z,100795.91
2023-03-01T14:30:56.749Z,100779.31
2023-03-01T14:33:27.305Z,100775.72
2023-03-01T14:36:13.774Z,100765.09
2023-03-01T14:38:49.270Z,100773.84
2023-03-01T14:41:25.836Z,100774.75
2023-03-01T14:44:00.845Z,100775.66
2023-03-01T14:46:39.784Z,100775.44
2023-03-01T14:49:39.627Z,100768.53
2023-03-01T14:52:22.018Z,100772.78
2023-03-01T14:54:52.195Z,100766.72
2023-03-01T14:57:27.290Z,100776.44
2023-03-01T14:59:58.347Z,100773.06
2023-03-01T15:02:28.405Z,100769.56
2023-03-01T15:04:58.504Z,100771.31
2023-03-01T15:07:30.822Z,100773.97
2023-03-01T15:10:00.065Z,100767.75
2023-03-01T15:12:30.176Z,100777.41
2023-03-01T15:15:04.181Z,100778.22
2023-03-01T15:17:35.427Z,100771.44
2023-03-01T15:20:06.890Z,100768.16
2023-03-01T15:22:35.947Z,100769.97
2023-03-01T15:25:03.613Z,100757.31
2023-03-01T15:27:31.086Z,100763.81
2023-03-01T15:30:01.246Z,100766.19
2023-03-01T15:32:32.279Z,100770.03
2023-03-01T15:35:01.855Z,100767.91
2023-03-01T15:38:02.580Z,100777.56
2023-03-01T15:40:33.581Z,100781.19
2023-03-01T15:43:07.967Z,100783.72
2023-03-01T15:45:39.868Z,100777.50
2023-03-01T15:48:18.605Z,100781.72
2023-03-01T15:50:58.694Z,100777.34
2023-03-01T15:53:35.335Z,100779.28
2023-03-01T15:56:25.922Z,100782.53
2023-03-01T15:59:02.262Z,100782.75
2023-03-01T16:01:30.116Z,100773.53
2023-03-01T16:03:59.139Z,100775.97
2023-03-01T16:06:26.767Z,100775.34
2023-03-01T16:08:54.523Z,100783.94
2023-03-01T16:11:22.352Z,100790.00
2023-03-01T16:13:50.777Z,100782.38
2023-03-01T16:16:18.466Z,100788.84
2023-03-01T16:18:47.681Z,100796.06
2023-03-01T16:21:19.428Z,100788.00
2023-03-01T16:23:47.080Z,100803.66
2023-03-01T16:26:15.521Z,100791.28
2023-03-01T16:28:43.901Z,100804.19
2023-03-01T16:31:12.108Z,100815.63
2023-03-01T16:33:39.837Z,100820.88
2023-03-01T16:36:12.383Z,100809.88
2023-03-01T16:38:39.805Z,100804.31
2023-03-01T16:41:13.259Z,100811.56
2023-03-01T16:43:42.029Z,100817.47
2023-03-01T16:46:20.689Z,100818.63
2023-03-01T16:48:49.074Z,100819.91
2023-03-01T16:51:16.935Z,100814.91
2023-03-01T16:53:46.333Z,100825.44
2023-03-01T16:56:15.493Z,100825.97
2023-03-01T16:58:46.817Z,100830.53
2023-03-01T17:01:21.190Z,100823.97
2023-03-01T17:03:50.983Z,100830.94
2023-03-01T17:06:28.018Z,100822.91
2023-03-01T17:08:55.855Z,100820.94
2023-03-01T17:11:24.065Z,100844.41
2023-03-01T17:13:56.373Z,100844.00
2023-03-01T17:16:28.313Z,100850.94
2023-03-01T17:18:56.640Z,100854.09
2023-03-01T17:21:24.873Z,100857.09
2023-03-01T17:24:03.343Z,100851.06
2023-03-01T17:26:34.177Z,100863.47
2023-03-01T17:29:09.760Z,100874.00
2023-03-01T17:31:44.375Z,100854.31
2023-03-01T17:34:40.104Z,100870.78
2023-03-01T17:37:10.621Z,100880.50
2023-03-01T17:39:39.925Z,100866.66
2023-03-01T17:42:08.037Z,100875.44
2023-03-01T17:44:39.401Z,100881.53
2023-03-01T17:47:07.288Z,100888.69
2023-03-01T17:49:34.945Z,100875.16
2023-03-01T17:52:02.777Z,100883.50
2023-03-01T17:54:30.806Z,100876.19
2023-03-01T17:57:00.249Z,100892.78
2023-03-01T17:59:40.703Z,100893.97
2023-03-01T18:02:13.737Z,100886.72
2023-03-01T18:04:41.434Z,100899.09
2023-03-01T18:07:12.813Z,100886.63
2023-03-01T18:09:41.329Z,100888.72
2023-03-01T18:12:10.815Z,100900.06
2023-03-01T18:14:55.663Z,100884.59
2023-03-01T18:17:26.130Z,100887.00
2023-03-01T18:19:57.643Z,100896.66
2023-03-01T18:22:26.201Z,100893.72
2023-03-01T18:24:53.702Z,100893.47
2023-03-01T18:27:21.287Z,100894.59
2023-03-01T18:29:48.832Z,100900.84
2023-03-01T18:32:17.794Z,100904.44
2023-03-01T18:34:48.555Z,100900.72
2023-03-01T18:37:16.523Z,100911.31
2023-03-01T18:39:58.847Z,100905.06
2023-03-01T18:42:29.538Z,100906.88
2023-03-01T18:45:02.120Z,100904.75
2023-03-01T18:47:30.322Z,100903.72
2023-03-01T18:49:58.204Z,100905.88
2023-03-01T18:52:26.025Z,100907.81
2023-03-01T18:54:59.939Z,100906.91
2023-03-01T18:57:34.929Z,100914.00
2023-03-01T19:00:06.220Z,100907.78
2023-03-01T19:02:45.525Z,100912.00
2023-03-01T19:05:17.374Z,100919.94
2023-03-01T19:09:00.800Z,100923.41
2023-03-01T19:11:44.045Z,100915.44
2023-03-01T19:25:19.816Z,100947.75
2023-03-01T19:27:58.024Z,100945.16
2023-03-01T19:37:04.426Z,100939.03
2023-03-01T19:46:28.182Z,100955.03
2023-03-01T19:50:00.216Z,100963.75
2023-03-01T20:00:48.668Z,100965.69
2023-03-01T20:09:37.700Z,100963.00
2023-03-01T20:12:40.560Z,100973.63
2023-03-01T20:15:13.530Z,100965.78
2023-03-01T20:18:32.226Z,100980.91
2023-03-01T20:21:01.130Z,100981.13
2023-03-01T20:23:29.640Z,100981.91
2023-03-01T20:30:32.200Z,100984.97
2023-03-01T20:38:11.399Z,101000.78
2023-03-01T20:40:47.686Z,100989.72
2023-03-01T20:43:22.383Z,101004.66
2023-03-01T20:45:52.769Z,101003.63
2023-03-01T20:52:47.433Z,100995.78
2023-03-01T20:55:47.471Z,101013.00
2023-03-01T20:58:25.253Z,100997.56
2023-03-01T21:01:24.671Z,101002.81
2023-03-01T21:04:31.373Z,101006.38
2023-03-01T21:11:29.270Z,100998.47
2023-03-01T21:14:14.560Z,100990.72
2023-03-01T21:17:12.166Z,101001.34
2023-03-01T21:19:43.854Z,101003.09
2023-03-01T21:22:15.446Z,100998.84
2023-03-01T21:24:52.341Z,101003.88
2023-03-01T21:27:22.352Z,100993.59
2023-03-01T21:33:46.401Z,101005.88
2023-03-01T21:36:31.097Z,100997.91
2023-03-01T21:40:06.220Z,101012.09
2023-03-01T21:42:52.492Z,101005.88
2023-03-01T21:45:20.231Z,101006.50
2023-03-01T21:47:50.281Z,101011.22
2023-03-01T21:50:47.773Z,101003.38
2023-03-01T21:54:17.149Z,100991.91
2023-03-01T21:57:05.646Z,101012.84
2023-03-01T22:00:08.477Z,101010.97
2023-03-01T22:04:32.243Z,101005.81
2023-03-01T22:07:46.591Z,101001.50
2023-03-01T22:11:18.748Z,101004.19
2023-03-01T22:14:27.661Z,100999.81
2023-03-01T22:59:24.667Z,100985.53
2023-03-01T23:18:37.694Z,100975.97
2023-03-01T23:22:26.841Z,100972.44
2023-03-01T23:24:56.845Z,100983.00
2023-03-01T23:27:26.911Z,100970.75
2023-03-01T23:31:12.405Z,100962.97
2023-03-01T23:33:45.935Z,100975.75
2023-03-01T23:36:27.269Z,100967.09
2023-03-01T23:39:07.496Z,100956.69
2023-03-01T23:41:40.546Z,100968.91
2023-03-01T23:44:26.519Z,100969.88
2023-03-01T23:46:57.062Z,100961.00
2023-03-01T23:49:25.112Z,100964.59
2023-03-01T23:52:04.317Z,100973.38
2023-03-01T23:55:58.640Z,100964.78
2023-03-01T23:58:30.924Z,100964.00
